DAL2720 KJAX-KATL
Flight info
| Callsign | DAL2720 |
|---|---|
| Flight time | 0h 44m |
| Altitude | 30000 |
| Route | BRSTL1 BAXLY LAIRI LARZZ JJEDI4 |
| Aircraft | A321/M-SDE3FGHIRWY/LB1 |
Departure
| Time | 2026-05-04 22:11 |
|---|---|
| Airport | Jacksonville International Airport (KJAX) |
Arrival
| Time | 2026-05-04 22:56 |
|---|---|
| Airport | Hartsfield Jackson Atlanta International Airport (KATL) |
| Time | Latitude | Longitude | Altitude | Speed | Heading |
|---|---|---|---|---|---|
| 2026-05-04 21:52 | 30.49284 | -81.68621 | 35 ft | 0 kts | 104° |
| 2026-05-04 22:04 | 30.49289 | -81.68641 | 42 ft | 4 kts | 108° |
| 2026-05-04 22:04 | 30.49298 | -81.68671 | 31 ft | 4 kts | 108° |
| 2026-05-04 22:04 | 30.49302 | -81.68697 | 35 ft | 4 kts | 55° |
| 2026-05-04 22:04 | 30.49304 | -81.68700 | 33 ft | 0 kts | 355° |
| 2026-05-04 22:06 | 30.49316 | -81.68702 | 33 ft | 6 kts | 355° |
| 2026-05-04 22:06 | 30.49384 | -81.68730 | 35 ft | 14 kts | 302° |
| 2026-05-04 22:06 | 30.49383 | -81.68838 | 35 ft | 13 kts | 265° |
| 2026-05-04 22:07 | 30.49377 | -81.68934 | 35 ft | 11 kts | 272° |
| 2026-05-04 22:07 | 30.49419 | -81.68999 | 35 ft | 10 kts | 332° |
| 2026-05-04 22:07 | 30.49473 | -81.69034 | 35 ft | 9 kts | 330° |
| 2026-05-04 22:07 | 30.49538 | -81.69077 | 35 ft | 13 kts | 329° |
| 2026-05-04 22:08 | 30.49646 | -81.69152 | 35 ft | 22 kts | 328° |
| 2026-05-04 22:08 | 30.49660 | -81.69301 | 36 ft | 20 kts | 250° |
| 2026-05-04 22:08 | 30.49616 | -81.69445 | 36 ft | 19 kts | 250° |
| 2026-05-04 22:08 | 30.49573 | -81.69582 | 35 ft | 18 kts | 250° |
| 2026-05-04 22:09 | 30.49534 | -81.69711 | 35 ft | 17 kts | 250° |
| 2026-05-04 22:09 | 30.49498 | -81.69829 | 35 ft | 15 kts | 250° |
| 2026-05-04 22:09 | 30.49501 | -81.69929 | 34 ft | 12 kts | 323° |
| 2026-05-04 22:09 | 30.49576 | -81.69966 | 35 ft | 11 kts | 338° |
| 2026-05-04 22:10 | 30.49637 | -81.69962 | 35 ft | 5 kts | 50° |
| 2026-05-04 22:10 | 30.49640 | -81.69955 | 35 ft | 0 kts | 61° |
| 2026-05-04 22:10 | 30.49681 | -81.69801 | 36 ft | 54 kts | 73° |
| 2026-05-04 22:10 | 30.49878 | -81.69154 | 38 ft | 113 kts | 70° |
| 2026-05-04 22:11 | 30.50195 | -81.68117 | 43 ft | 157 kts | 75° |
| 2026-05-04 22:11 | 30.50561 | -81.66877 | 521 ft | 159 kts | 72° |
| 2026-05-04 22:11 | 30.50925 | -81.65711 | 1280 ft | 148 kts | 73° |
| 2026-05-04 22:11 | 30.51428 | -81.64662 | 1765 ft | 162 kts | 47° |
| 2026-05-04 22:12 | 30.52524 | -81.64109 | 2029 ft | 186 kts | 7° |
| 2026-05-04 22:12 | 30.53821 | -81.64469 | 2410 ft | 201 kts | 334° |
| 2026-05-04 22:12 | 30.55046 | -81.65350 | 2729 ft | 215 kts | 327° |
| 2026-05-04 22:12 | 30.56328 | -81.66414 | 2898 ft | 239 kts | 325° |
| 2026-05-04 22:13 | 30.57744 | -81.67603 | 3164 ft | 262 kts | 325° |
| 2026-05-04 22:13 | 30.59274 | -81.68847 | 3767 ft | 274 kts | 326° |
| 2026-05-04 22:13 | 30.60873 | -81.70101 | 4494 ft | 281 kts | 327° |
| 2026-05-04 22:13 | 30.62517 | -81.71346 | 5350 ft | 282 kts | 327° |
| 2026-05-04 22:14 | 30.64161 | -81.72561 | 6330 ft | 278 kts | 326° |
| 2026-05-04 22:14 | 30.65791 | -81.73749 | 7203 ft | 276 kts | 325° |
| 2026-05-04 22:14 | 30.67426 | -81.74931 | 8011 ft | 277 kts | 326° |
| 2026-05-04 22:14 | 30.69077 | -81.76119 | 8739 ft | 281 kts | 327° |
| 2026-05-04 22:15 | 30.70753 | -81.77325 | 9442 ft | 286 kts | 326° |
| 2026-05-04 22:15 | 30.72453 | -81.78553 | 10142 ft | 290 kts | 326° |
| 2026-05-04 22:15 | 30.74220 | -81.79837 | 10386 ft | 311 kts | 327° |
| 2026-05-04 22:15 | 30.76121 | -81.81219 | 10609 ft | 331 kts | 327° |
| 2026-05-04 22:16 | 30.78101 | -81.82655 | 11155 ft | 338 kts | 326° |
| 2026-05-04 22:16 | 30.80107 | -81.84109 | 11851 ft | 341 kts | 326° |
| 2026-05-04 22:16 | 30.82129 | -81.85573 | 12485 ft | 344 kts | 327° |
| 2026-05-04 22:16 | 30.84171 | -81.87053 | 13160 ft | 347 kts | 327° |
| 2026-05-04 22:17 | 30.86230 | -81.88548 | 13856 ft | 350 kts | 326° |
| 2026-05-04 22:17 | 30.88309 | -81.90051 | 14448 ft | 353 kts | 327° |
| 2026-05-04 22:17 | 30.90418 | -81.91549 | 15021 ft | 357 kts | 327° |
| 2026-05-04 22:17 | 30.92557 | -81.93051 | 15623 ft | 360 kts | 327° |
| 2026-05-04 22:18 | 30.94715 | -81.94556 | 16213 ft | 363 kts | 327° |
| 2026-05-04 22:18 | 30.96889 | -81.96072 | 16845 ft | 366 kts | 327° |
| 2026-05-04 22:18 | 30.99149 | -81.97468 | 17428 ft | 371 kts | 334° |
| 2026-05-04 22:18 | 31.01553 | -81.98610 | 18018 ft | 375 kts | 335° |
| 2026-05-04 22:19 | 31.03157 | -81.99371 | 18390 ft | 377 kts | 335° |
| 2026-05-04 22:19 | 31.05596 | -82.00527 | 18856 ft | 380 kts | 335° |
| 2026-05-04 22:19 | 31.08047 | -82.01694 | 19361 ft | 382 kts | 334° |
| 2026-05-04 22:19 | 31.10510 | -82.02870 | 19868 ft | 384 kts | 334° |
| 2026-05-04 22:20 | 31.12984 | -82.04053 | 20375 ft | 386 kts | 334° |
| 2026-05-04 22:20 | 31.15472 | -82.05244 | 20859 ft | 388 kts | 334° |
| 2026-05-04 22:20 | 31.17976 | -82.06441 | 21359 ft | 390 kts | 334° |
| 2026-05-04 22:20 | 31.20491 | -82.07642 | 21851 ft | 392 kts | 333° |
| 2026-05-04 22:21 | 31.23019 | -82.08848 | 22342 ft | 393 kts | 333° |
| 2026-05-04 22:21 | 31.25560 | -82.10062 | 22828 ft | 396 kts | 333° |
| 2026-05-04 22:21 | 31.28112 | -82.11283 | 23319 ft | 397 kts | 333° |
| 2026-05-04 22:21 | 31.30679 | -82.12515 | 23732 ft | 400 kts | 333° |
| 2026-05-04 22:22 | 31.33264 | -82.13755 | 24110 ft | 403 kts | 333° |
| 2026-05-04 22:22 | 31.35863 | -82.15000 | 24507 ft | 404 kts | 333° |
| 2026-05-04 22:22 | 31.38473 | -82.16251 | 24885 ft | 406 kts | 333° |
| 2026-05-04 22:22 | 31.41088 | -82.17506 | 25273 ft | 407 kts | 332° |
| 2026-05-04 22:23 | 31.43715 | -82.18773 | 25665 ft | 409 kts | 332° |
| 2026-05-04 22:23 | 31.46349 | -82.20044 | 26048 ft | 410 kts | 332° |
| 2026-05-04 22:23 | 31.48992 | -82.21321 | 26432 ft | 412 kts | 332° |
| 2026-05-04 22:23 | 31.51646 | -82.22601 | 26817 ft | 413 kts | 332° |
| 2026-05-04 22:24 | 31.54310 | -82.23884 | 27181 ft | 415 kts | 332° |
| 2026-05-04 22:24 | 31.56985 | -82.25171 | 27562 ft | 416 kts | 332° |
| 2026-05-04 22:24 | 31.59669 | -82.26462 | 27925 ft | 418 kts | 332° |
| 2026-05-04 22:24 | 31.62364 | -82.27757 | 28286 ft | 419 kts | 332° |
| 2026-05-04 22:25 | 31.65069 | -82.29060 | 28645 ft | 421 kts | 332° |
| 2026-05-04 22:25 | 31.67780 | -82.30370 | 28993 ft | 422 kts | 332° |
| 2026-05-04 22:25 | 31.70499 | -82.31688 | 29328 ft | 424 kts | 331° |
| 2026-05-04 22:25 | 31.73217 | -82.33038 | 29645 ft | 422 kts | 328° |
| 2026-05-04 22:26 | 31.75723 | -82.34780 | 29934 ft | 417 kts | 318° |
| 2026-05-04 22:26 | 31.77960 | -82.36921 | 30055 ft | 416 kts | 315° |
| 2026-05-04 22:26 | 31.80191 | -82.39143 | 30067 ft | 425 kts | 315° |
| 2026-05-04 22:27 | 31.84763 | -82.43691 | 30063 ft | 433 kts | 315° |
| 2026-05-04 22:27 | 31.89389 | -82.48278 | 30063 ft | 436 kts | 315° |
| 2026-05-04 22:28 | 31.94021 | -82.52881 | 30063 ft | 436 kts | 315° |
| 2026-05-04 22:28 | 31.98647 | -82.57500 | 30063 ft | 436 kts | 315° |
| 2026-05-04 22:29 | 32.03228 | -82.62174 | 30061 ft | 435 kts | 315° |
| 2026-05-04 22:29 | 32.07794 | -82.66862 | 30054 ft | 436 kts | 315° |
| 2026-05-04 22:30 | 32.12377 | -82.71546 | 30053 ft | 436 kts | 315° |
| 2026-05-04 22:30 | 32.16957 | -82.76232 | 30063 ft | 436 kts | 315° |
| 2026-05-04 22:31 | 32.21542 | -82.80929 | 30058 ft | 437 kts | 315° |
| 2026-05-04 22:31 | 32.23836 | -82.83280 | 29906 ft | 436 kts | 315° |
| 2026-05-04 22:31 | 32.26102 | -82.85598 | 29623 ft | 424 kts | 315° |
| 2026-05-04 22:31 | 32.28303 | -82.87847 | 29330 ft | 412 kts | 315° |
| 2026-05-04 22:32 | 32.30441 | -82.90035 | 29053 ft | 401 kts | 315° |
| 2026-05-04 22:32 | 32.32520 | -82.92170 | 28784 ft | 391 kts | 315° |
| 2026-05-04 22:32 | 32.34552 | -82.94261 | 28515 ft | 384 kts | 315° |
| 2026-05-04 22:32 | 32.36559 | -82.96331 | 28246 ft | 382 kts | 314° |
| 2026-05-04 22:33 | 32.38555 | -82.98392 | 27983 ft | 380 kts | 314° |
| 2026-05-04 22:33 | 32.40546 | -83.00446 | 27721 ft | 379 kts | 315° |
| 2026-05-04 22:33 | 32.42530 | -83.02490 | 27462 ft | 378 kts | 315° |
| 2026-05-04 22:33 | 32.44516 | -83.04535 | 27229 ft | 377 kts | 315° |
| 2026-05-04 22:34 | 32.46493 | -83.06569 | 26974 ft | 377 kts | 315° |
| 2026-05-04 22:34 | 32.48467 | -83.08602 | 26721 ft | 376 kts | 315° |
| 2026-05-04 22:34 | 32.50438 | -83.10632 | 26464 ft | 375 kts | 315° |
| 2026-05-04 22:34 | 32.52404 | -83.12656 | 26221 ft | 374 kts | 315° |
| 2026-05-04 22:35 | 32.54347 | -83.14659 | 25879 ft | 368 kts | 315° |
| 2026-05-04 22:35 | 32.56266 | -83.16642 | 25432 ft | 364 kts | 315° |
| 2026-05-04 22:35 | 32.58163 | -83.18603 | 24999 ft | 360 kts | 315° |
| 2026-05-04 22:35 | 32.60045 | -83.20547 | 24578 ft | 357 kts | 315° |
| 2026-05-04 22:36 | 32.61909 | -83.22476 | 24129 ft | 354 kts | 315° |
| 2026-05-04 22:36 | 32.63759 | -83.24395 | 23704 ft | 352 kts | 315° |
| 2026-05-04 22:36 | 32.65593 | -83.26305 | 23219 ft | 350 kts | 315° |
| 2026-05-04 22:36 | 32.67409 | -83.28198 | 22790 ft | 346 kts | 315° |
| 2026-05-04 22:37 | 32.69207 | -83.30069 | 22361 ft | 342 kts | 315° |
| 2026-05-04 22:37 | 32.70990 | -83.31923 | 21932 ft | 339 kts | 315° |
| 2026-05-04 22:37 | 32.72755 | -83.33759 | 21511 ft | 336 kts | 315° |
| 2026-05-04 22:37 | 32.74510 | -83.35582 | 21083 ft | 334 kts | 315° |
| 2026-05-04 22:38 | 32.76251 | -83.37392 | 20664 ft | 331 kts | 315° |
| 2026-05-04 22:38 | 32.77980 | -83.39193 | 20242 ft | 330 kts | 315° |
| 2026-05-04 22:38 | 32.79698 | -83.40985 | 19822 ft | 328 kts | 315° |
| 2026-05-04 22:38 | 32.81407 | -83.42771 | 19400 ft | 327 kts | 315° |
| 2026-05-04 22:39 | 32.83107 | -83.44553 | 18992 ft | 325 kts | 315° |
| 2026-05-04 22:39 | 32.84801 | -83.46331 | 18578 ft | 325 kts | 315° |
| 2026-05-04 22:39 | 32.86494 | -83.48104 | 18126 ft | 324 kts | 315° |
| 2026-05-04 22:39 | 32.88185 | -83.49872 | 17682 ft | 323 kts | 316° |
| 2026-05-04 22:40 | 32.89868 | -83.51631 | 17278 ft | 321 kts | 316° |
| 2026-05-04 22:40 | 32.91539 | -83.53378 | 16884 ft | 318 kts | 316° |
| 2026-05-04 22:40 | 32.93197 | -83.55113 | 16492 ft | 317 kts | 316° |
| 2026-05-04 22:40 | 32.94847 | -83.56840 | 16107 ft | 315 kts | 316° |
| 2026-05-04 22:41 | 32.96490 | -83.58559 | 15710 ft | 314 kts | 316° |
| 2026-05-04 22:41 | 32.98123 | -83.60269 | 15341 ft | 312 kts | 316° |
| 2026-05-04 22:41 | 32.99752 | -83.61976 | 14965 ft | 311 kts | 316° |
| 2026-05-04 22:41 | 33.01372 | -83.63674 | 14586 ft | 310 kts | 316° |
| 2026-05-04 22:42 | 33.02986 | -83.65369 | 14208 ft | 309 kts | 316° |
| 2026-05-04 22:42 | 33.04598 | -83.67060 | 13824 ft | 308 kts | 317° |
| 2026-05-04 22:42 | 33.06209 | -83.68745 | 13420 ft | 307 kts | 317° |
| 2026-05-04 22:42 | 33.07808 | -83.70421 | 13031 ft | 305 kts | 316° |
| 2026-05-04 22:43 | 33.09397 | -83.72093 | 12651 ft | 304 kts | 316° |
| 2026-05-04 22:43 | 33.10968 | -83.73750 | 12405 ft | 298 kts | 316° |
| 2026-05-04 22:43 | 33.12529 | -83.75395 | 12311 ft | 300 kts | 316° |
| 2026-05-04 22:43 | 33.14094 | -83.77042 | 12189 ft | 300 kts | 317° |
| 2026-05-04 22:44 | 33.15666 | -83.78697 | 11777 ft | 303 kts | 316° |
| 2026-05-04 22:44 | 33.17247 | -83.80366 | 11354 ft | 303 kts | 316° |
| 2026-05-04 22:44 | 33.18827 | -83.82035 | 10943 ft | 303 kts | 316° |
| 2026-05-04 22:44 | 33.20371 | -83.83743 | 10530 ft | 303 kts | 314° |
| 2026-05-04 22:45 | 33.21863 | -83.85501 | 10157 ft | 301 kts | 312° |
| 2026-05-04 22:45 | 33.24796 | -83.89057 | 9361 ft | 299 kts | 313° |
| 2026-05-04 22:45 | 33.26254 | -83.90820 | 8957 ft | 298 kts | 313° |
| 2026-05-04 22:46 | 33.27770 | -83.92473 | 8688 ft | 292 kts | 323° |
| 2026-05-04 22:46 | 33.29424 | -83.93795 | 8620 ft | 279 kts | 324° |
| 2026-05-04 22:46 | 33.30991 | -83.95067 | 8557 ft | 266 kts | 323° |
| 2026-05-04 22:46 | 33.32522 | -83.96324 | 8496 ft | 268 kts | 323° |
| 2026-05-04 22:47 | 33.34063 | -83.97595 | 8441 ft | 269 kts | 323° |
| 2026-05-04 22:47 | 33.35603 | -83.98862 | 8381 ft | 269 kts | 323° |
| 2026-05-04 22:47 | 33.37147 | -84.00129 | 8328 ft | 269 kts | 323° |
| 2026-05-04 22:47 | 33.38694 | -84.01393 | 8273 ft | 269 kts | 323° |
| 2026-05-04 22:48 | 33.40241 | -84.02655 | 8213 ft | 269 kts | 323° |
| 2026-05-04 22:48 | 33.41790 | -84.03915 | 8144 ft | 269 kts | 324° |
| 2026-05-04 22:48 | 33.43338 | -84.05176 | 7887 ft | 268 kts | 323° |
| 2026-05-04 22:48 | 33.44877 | -84.06433 | 7527 ft | 267 kts | 323° |
| 2026-05-04 22:49 | 33.46411 | -84.07688 | 7151 ft | 268 kts | 323° |
| 2026-05-04 22:49 | 33.47951 | -84.08946 | 6763 ft | 269 kts | 324° |
| 2026-05-04 22:49 | 33.49501 | -84.10213 | 6358 ft | 271 kts | 324° |
| 2026-05-04 22:49 | 33.51063 | -84.11490 | 5952 ft | 272 kts | 324° |
| 2026-05-04 22:50 | 33.52625 | -84.12768 | 5537 ft | 273 kts | 324° |
| 2026-05-04 22:50 | 33.54197 | -84.14052 | 5123 ft | 274 kts | 323° |
| 2026-05-04 22:50 | 33.55768 | -84.15335 | 4838 ft | 269 kts | 324° |
| 2026-05-04 22:50 | 33.57278 | -84.16573 | 4767 ft | 256 kts | 323° |
| 2026-05-04 22:51 | 33.58720 | -84.17758 | 4663 ft | 246 kts | 323° |
| 2026-05-04 22:51 | 33.60102 | -84.18893 | 4566 ft | 236 kts | 324° |
| 2026-05-04 22:51 | 33.61451 | -84.20000 | 4463 ft | 234 kts | 323° |
| 2026-05-04 22:51 | 33.62587 | -84.21354 | 4350 ft | 230 kts | 298° |
| 2026-05-04 22:52 | 33.63141 | -84.23119 | 4106 ft | 227 kts | 272° |
| 2026-05-04 22:52 | 33.63161 | -84.24964 | 4015 ft | 222 kts | 268° |
| 2026-05-04 22:52 | 33.63168 | -84.26777 | 3784 ft | 212 kts | 267° |
| 2026-05-04 22:52 | 33.63173 | -84.28505 | 3270 ft | 204 kts | 267° |
| 2026-05-04 22:53 | 33.63176 | -84.30154 | 2961 ft | 189 kts | 267° |
| 2026-05-04 22:53 | 33.63181 | -84.31648 | 2742 ft | 168 kts | 266° |
| 2026-05-04 22:53 | 33.63186 | -84.32990 | 2426 ft | 156 kts | 267° |
| 2026-05-04 22:53 | 33.63188 | -84.34268 | 2245 ft | 151 kts | 265° |
| 2026-05-04 22:54 | 33.63176 | -84.35514 | 2092 ft | 148 kts | 265° |
| 2026-05-04 22:54 | 33.63177 | -84.36737 | 1871 ft | 146 kts | 266° |
| 2026-05-04 22:54 | 33.63165 | -84.37958 | 1648 ft | 145 kts | 265° |
| 2026-05-04 22:54 | 33.63178 | -84.39175 | 1531 ft | 147 kts | 268° |
| 2026-05-04 22:55 | 33.63182 | -84.40395 | 1379 ft | 144 kts | 267° |
| 2026-05-04 22:55 | 33.63184 | -84.41562 | 1131 ft | 136 kts | 268° |
| 2026-05-04 22:55 | 33.63180 | -84.42631 | 1035 ft | 111 kts | 270° |
| 2026-05-04 22:55 | 33.63182 | -84.43314 | 1037 ft | 56 kts | 270° |
| 2026-05-04 22:56 | 33.63183 | -84.43673 | 1036 ft | 38 kts | 270° |
| 2026-05-04 22:56 | 33.63184 | -84.43980 | 1033 ft | 34 kts | 273° |
| 2026-05-04 22:56 | 33.63244 | -84.44216 | 1035 ft | 25 kts | 302° |
| 2026-05-04 22:56 | 33.63359 | -84.44229 | 1035 ft | 18 kts | 34° |
| 2026-05-04 22:57 | 33.63474 | -84.44197 | 1036 ft | 16 kts | 3° |
| 2026-05-04 22:57 | 33.63582 | -84.44195 | 1036 ft | 15 kts | 360° |
| 2026-05-04 22:57 | 33.63662 | -84.44144 | 1036 ft | 14 kts | 70° |
| 2026-05-04 22:57 | 33.63665 | -84.44037 | 1036 ft | 12 kts | 90° |
| 2026-05-04 22:58 | 33.63665 | -84.43940 | 1036 ft | 11 kts | 90° |
| 2026-05-04 22:58 | 33.63665 | -84.43850 | 1036 ft | 10 kts | 90° |
| 2026-05-04 22:58 | 33.63666 | -84.43765 | 1036 ft | 12 kts | 90° |
| 2026-05-04 22:58 | 33.63665 | -84.43644 | 1036 ft | 15 kts | 90° |
| 2026-05-04 22:59 | 33.63665 | -84.43521 | 1035 ft | 14 kts | 90° |
| 2026-05-04 22:59 | 33.63671 | -84.43444 | 1035 ft | 14 kts | 72° |
| 2026-05-04 22:59 | 33.63768 | -84.43395 | 1035 ft | 11 kts | 0° |
| 2026-05-04 22:59 | 33.63818 | -84.43395 | 1035 ft | 10 kts | 0° |
| 2026-05-04 23:00 | 33.63887 | -84.43394 | 1035 ft | 9 kts | 360° |
| 2026-05-04 23:00 | 33.63949 | -84.43395 | 1035 ft | 8 kts | 360° |
| 2026-05-04 23:00 | 33.64002 | -84.43395 | 1035 ft | 7 kts | 360° |
| 2026-05-04 23:00 | 33.64047 | -84.43395 | 1035 ft | 6 kts | 359° |
| 2026-05-04 23:01 | 33.64105 | -84.43395 | 1035 ft | 9 kts | 360° |
| 2026-05-04 23:01 | 33.64154 | -84.43370 | 1035 ft | 7 kts | 61° |
| 2026-05-04 23:01 | 33.64159 | -84.43324 | 1035 ft | 0 kts | 89° |
| 2026-05-04 23:01 | 33.64159 | -84.43322 | 1035 ft | 2 kts | 89° |
| 2026-05-04 23:02 | 33.64159 | -84.43321 | 1035 ft | 0 kts | 89° |
| 2026-05-04 23:02 | 33.64160 | -84.43322 | 1035 ft | 0 kts | 88° |